Time;durP1;ratioP1;P1;durP2;ratioP2;P2;SDS_P1;SDS_P2;PMS_P1;PMS_P2;Temp;Humidity;BMP_temperature;BMP_pressure;BME280_temperature;BME280_humidity;BME280_pressure;Samples;Min_cycle;Max_cycle;Signal;HPM_P1;HPM_P2
2023/09/22 00:00:18;;;;;;;0.40;0.40;;;19.60;99.90;;;;;;4417685;32;20539;-59
2023/09/22 00:02:44;;;;;;;2.03;0.98;;;19.60;99.90;;;;;;4415632;32;20085;-60
2023/09/22 00:05:13;;;;;;;0.60;0.60;;;19.50;99.90;;;;;;4391632;32;20105;-60
2023/09/22 00:07:41;;;;;;;1.62;0.88;;;19.40;99.90;;;;;;4419238;32;20531;-59
2023/09/22 00:10:07;;;;;;;0.60;0.60;;;19.40;99.90;;;;;;4417018;32;20148;-58
2023/09/22 00:12:33;;;;;;;1.12;0.80;;;19.30;99.90;;;;;;4415365;32;20104;-59
2023/09/22 00:14:59;;;;;;;0.88;0.65;;;19.30;99.90;;;;;;4416401;32;20089;-58
2023/09/22 00:17:25;;;;;;;3.22;1.65;;;19.30;99.90;;;;;;4389341;32;20462;-59
2023/09/22 00:19:51;;;;;;;0.55;0.55;;;19.20;99.90;;;;;;4414918;32;20098;-60
2023/09/22 00:22:16;;;;;;;0.50;0.50;;;19.20;99.90;;;;;;4411130;32;20569;-59
2023/09/22 00:24:42;;;;;;;1.55;0.50;;;19.30;99.90;;;;;;4413947;32;20089;-60
2023/09/22 00:27:07;;;;;;;0.80;0.60;;;19.30;99.90;;;;;;4417402;32;20073;-58
2023/09/22 00:29:33;;;;;;;0.55;0.55;;;19.30;99.90;;;;;;4415655;32;21930;-59
2023/09/22 00:31:58;;;;;;;3.83;1.10;;;19.30;99.90;;;;;;4415585;32;20096;-60
2023/09/22 00:34:23;;;;;;;0.47;0.47;;;19.20;99.90;;;;;;4415260;32;20093;-59
2023/09/22 00:36:52;;;;;;;0.47;0.47;;;19.30;99.90;;;;;;4414820;32;20533;-59
2023/09/22 00:39:18;;;;;;;12.93;1.20;;;19.20;99.90;;;;;;4416915;32;21168;-59
2023/09/22 00:41:43;;;;;;;1.95;0.93;;;19.20;99.90;;;;;;4416974;32;20435;-60
2023/09/22 00:44:09;;;;;;;0.62;0.62;;;19.20;99.90;;;;;;4415987;32;20541;-58
2023/09/22 00:46:36;;;;;;;3.78;0.55;;;19.10;99.90;;;;;;4417568;32;20060;-59
2023/09/22 00:49:02;;;;;;;1.55;1.20;;;19.20;99.90;;;;;;4409702;32;20089;-60
2023/09/22 00:51:28;;;;;;;0.60;0.60;;;19.30;99.90;;;;;;4413877;32;20069;-60
2023/09/22 00:53:54;;;;;;;0.70;0.70;;;19.50;99.90;;;;;;4388106;32;20070;-61
2023/09/22 00:56:21;;;;;;;1.92;0.80;;;19.50;99.90;;;;;;4412948;32;20074;-61
2023/09/22 00:58:49;;;;;;;0.55;0.55;;;19.60;99.90;;;;;;4402632;32;20093;-59
2023/09/22 01:01:15;;;;;;;0.40;0.40;;;19.60;99.90;;;;;;4394302;32;20085;-60
2023/09/22 01:03:41;;;;;;;0.60;0.60;;;19.50;99.90;;;;;;4406878;32;20144;-60
2023/09/22 01:06:09;;;;;;;0.68;0.55;;;19.50;99.90;;;;;;4412235;32;20128;-61
2023/09/22 01:08:35;;;;;;;0.45;0.45;;;19.50;99.90;;;;;;4414758;32;20123;-61
2023/09/22 01:11:01;;;;;;;2.28;0.70;;;19.60;99.90;;;;;;4412112;32;20070;-61
2023/09/22 01:13:27;;;;;;;1.42;0.70;;;19.60;99.90;;;;;;4416736;32;20518;-61
2023/09/22 01:15:53;;;;;;;0.60;0.60;;;19.60;99.90;;;;;;4415524;32;20501;-62
2023/09/22 01:18:18;;;;;;;0.47;0.47;;;19.60;99.90;;;;;;4414332;32;20066;-62
2023/09/22 01:20:44;;;;;;;0.60;0.60;;;19.50;99.90;;;;;;4413443;32;20097;-62
2023/09/22 01:23:12;;;;;;;2.80;1.42;;;19.60;99.90;;;;;;4414403;32;20497;-61
2023/09/22 01:25:39;;;;;;;1.25;0.80;;;19.60;99.90;;;;;;4399995;32;20517;-61
2023/09/22 01:28:06;;;;;;;0.50;0.50;;;19.60;99.90;;;;;;4416562;32;20099;-61
2023/09/22 01:30:33;;;;;;;7.28;0.57;;;19.60;99.90;;;;;;4397353;32;20070;-62
2023/09/22 01:33:03;;;;;;;0.95;0.80;;;19.60;99.90;;;;;;4415480;32;20070;-62
2023/09/22 01:35:33;;;;;;;0.47;0.47;;;19.60;99.90;;;;;;4416081;32;21498;-61
2023/09/22 01:38:19;;;;;;;1.80;0.77;;;19.50;99.90;;;;;;4415808;32;20085;-60
2023/09/22 01:40:45;;;;;;;3.70;1.42;;;19.60;99.90;;;;;;4401596;32;20077;-61
2023/09/22 01:43:11;;;;;;;0.35;0.35;;;19.50;99.90;;;;;;4415461;32;20069;-62
2023/09/22 01:45:38;;;;;;;3.03;1.02;;;19.50;99.90;;;;;;4415279;32;20082;-61
2023/09/22 01:48:04;;;;;;;0.37;0.37;;;19.50;99.90;;;;;;4401549;32;20069;-61
2023/09/22 01:50:35;;;;;;;0.50;0.50;;;19.50;99.90;;;;;;4397943;32;20081;-62
2023/09/22 01:53:01;;;;;;;6.75;2.50;;;19.60;99.90;;;;;;4414596;32;20102;-61
2023/09/22 01:55:26;;;;;;;1.40;0.80;;;19.50;99.90;;;;;;4412659;32;20078;-62
2023/09/22 01:57:52;;;;;;;1.02;0.50;;;19.60;99.90;;;;;;4415895;32;20116;-61
2023/09/22 02:00:18;;;;;;;1.10;0.77;;;19.50;99.90;;;;;;4418146;32;20082;-62
2023/09/22 02:02:45;;;;;;;2.95;0.77;;;19.50;99.90;;;;;;4414614;32;20427;-61
2023/09/22 02:05:11;;;;;;;0.80;0.80;;;19.50;99.90;;;;;;4419353;32;20065;-61
2023/09/22 02:07:38;;;;;;;4.47;1.37;;;19.50;99.90;;;;;;4417503;32;20143;-61
2023/09/22 02:10:05;;;;;;;0.75;0.68;;;19.50;99.90;;;;;;4417032;32;20075;-62
2023/09/22 02:12:31;;;;;;;2.20;1.27;;;19.60;99.90;;;;;;4402037;32;20089;-62
2023/09/22 02:14:57;;;;;;;3.92;0.88;;;19.60;99.90;;;;;;4415273;32;20146;-62
2023/09/22 02:17:22;;;;;;;0.50;0.50;;;19.60;99.90;;;;;;4418411;32;20488;-62
2023/09/22 02:19:48;;;;;;;0.52;0.50;;;19.60;99.90;;;;;;4418298;32;20086;-61
2023/09/22 02:22:13;;;;;;;0.50;0.50;;;19.60;99.90;;;;;;4418680;32;20087;-62
2023/09/22 02:24:39;;;;;;;0.37;0.32;;;19.60;99.90;;;;;;4418307;32;20556;-62
2023/09/22 02:27:05;;;;;;;0.40;0.40;;;19.60;99.90;;;;;;4415834;32;20139;-61
2023/09/22 02:29:30;;;;;;;0.70;0.70;;;19.60;99.90;;;;;;4403507;32;20061;-61
2023/09/22 02:31:56;;;;;;;1.05;0.73;;;19.60;99.90;;;;;;4411545;32;20723;-62
2023/09/22 02:34:21;;;;;;;1.12;0.93;;;19.50;99.90;;;;;;4416092;32;20131;-61
2023/09/22 02:36:48;;;;;;;0.35;0.35;;;19.60;99.90;;;;;;4419026;32;20540;-60
2023/09/22 02:39:15;;;;;;;0.60;0.60;;;19.60;99.90;;;;;;4415994;32;20082;-61
2023/09/22 02:41:41;;;;;;;0.37;0.37;;;19.60;99.90;;;;;;4401850;32;20085;-61
2023/09/22 02:44:08;;;;;;;4.82;1.05;;;19.60;99.90;;;;;;4403387;32;20077;-61
2023/09/22 02:46:35;;;;;;;24.92;2.60;;;19.70;99.90;;;;;;4399272;32;20365;-59
2023/09/22 02:49:00;;;;;;;0.30;0.30;;;19.60;99.90;;;;;;4415717;32;20082;-62
2023/09/22 02:51:26;;;;;;;0.70;0.57;;;19.60;99.90;;;;;;4414386;32;20074;-61
2023/09/22 02:53:54;;;;;;;0.43;0.43;;;19.60;99.90;;;;;;4415928;32;20105;-62
2023/09/22 02:56:19;;;;;;;0.47;0.47;;;19.60;99.90;;;;;;4415284;32;20061;-61
2023/09/22 02:58:45;;;;;;;0.30;0.30;;;19.60;99.90;;;;;;4417491;32;20094;-62
2023/09/22 03:01:11;;;;;;;0.40;0.40;;;19.60;99.90;;;;;;4414998;32;20152;-61
2023/09/22 03:03:42;;;;;;;0.30;0.30;;;19.60;99.90;;;;;;4416235;32;20061;-61
2023/09/22 03:06:07;;;;;;;0.45;0.45;;;19.60;99.90;;;;;;4419632;32;20398;-62
2023/09/22 03:08:33;;;;;;;1.65;0.50;;;19.60;99.90;;;;;;4417054;32;20069;-61
2023/09/22 03:10:58;;;;;;;0.30;0.30;;;19.60;99.90;;;;;;4417507;32;20069;-61
2023/09/22 03:13:24;;;;;;;0.30;0.30;;;19.60;99.90;;;;;;4413841;32;20513;-61
2023/09/22 03:15:49;;;;;;;0.30;0.30;;;19.60;99.90;;;;;;4402724;32;20061;-61
2023/09/22 03:18:15;;;;;;;0.25;0.25;;;19.60;99.90;;;;;;4421500;32;20171;-61
2023/09/22 03:20:40;;;;;;;0.22;0.22;;;19.60;99.90;;;;;;4418544;32;20117;-62
2023/09/22 03:23:06;;;;;;;0.20;0.20;;;19.50;99.90;;;;;;4418403;32;20057;-62
2023/09/22 03:25:32;;;;;;;0.40;0.40;;;19.50;99.90;;;;;;4416393;32;20062;-60
2023/09/22 03:27:57;;;;;;;0.20;0.20;;;19.50;99.90;;;;;;4418014;32;20065;-61
2023/09/22 03:30:23;;;;;;;0.30;0.30;;;19.40;99.90;;;;;;4417874;32;20100;-60
2023/09/22 03:32:50;;;;;;;0.35;0.35;;;19.20;99.90;;;;;;4418621;32;20097;-61
2023/09/22 03:35:16;;;;;;;0.25;0.25;;;19.10;99.90;;;;;;4418206;32;21367;-60
2023/09/22 03:37:42;;;;;;;0.73;0.73;;;19.00;99.90;;;;;;4418864;32;20111;-60
2023/09/22 03:40:13;;;;;;;0.20;0.20;;;18.90;99.90;;;;;;4418227;32;20077;-59
2023/09/22 03:42:40;;;;;;;0.30;0.30;;;18.70;99.90;;;;;;4401078;32;20097;-60
2023/09/22 03:45:07;;;;;;;0.57;0.57;;;18.60;99.90;;;;;;4403294;32;20124;-61
2023/09/22 03:47:32;;;;;;;0.20;0.20;;;18.60;99.90;;;;;;4415905;32;20073;-61
2023/09/22 03:49:58;;;;;;;0.43;0.32;;;18.60;99.90;;;;;;4417711;32;20081;-62
2023/09/22 03:52:23;;;;;;;0.35;0.25;;;18.50;99.90;;;;;;4416376;32;20109;-61
2023/09/22 03:54:49;;;;;;;0.30;0.30;;;18.40;99.90;;;;;;4401347;32;20113;-60
2023/09/22 03:57:16;;;;;;;0.20;0.20;;;18.40;99.90;;;;;;4400185;32;20097;-60
2023/09/22 03:59:42;;;;;;;0.30;0.30;;;18.30;99.90;;;;;;4414141;32;20132;-59
2023/09/22 04:02:07;;;;;;;0.30;0.30;;;18.30;99.90;;;;;;4413461;32;21378;-59
2023/09/22 04:04:33;;;;;;;0.40;0.40;;;18.20;99.90;;;;;;4418235;32;20468;-60
2023/09/22 04:06:59;;;;;;;0.37;0.30;;;18.20;99.90;;;;;;4398111;32;20093;-59
2023/09/22 04:09:25;;;;;;;0.20;0.20;;;18.20;99.90;;;;;;4416612;32;20077;-59
2023/09/22 04:11:52;;;;;;;0.20;0.20;;;18.10;99.90;;;;;;4401861;32;20109;-60
2023/09/22 04:14:17;;;;;;;0.22;0.22;;;18.10;99.90;;;;;;4416211;32;20435;-61
2023/09/22 04:16:43;;;;;;;1.02;0.40;;;18.10;99.90;;;;;;4413236;32;20069;-59
2023/09/22 04:19:09;;;;;;;0.20;0.20;;;18.10;99.90;;;;;;4418207;32;20065;-60
2023/09/22 04:21:42;;;;;;;0.20;0.20;;;18.10;99.90;;;;;;4410006;32;20061;-60
2023/09/22 04:24:09;;;;;;;0.25;0.25;;;18.10;99.90;;;;;;4403828;32;20093;-59
2023/09/22 04:26:42;;;;;;;0.30;0.30;;;18.10;99.90;;;;;;4415099;32;20548;-59
2023/09/22 04:29:09;;;;;;;0.30;0.30;;;17.90;99.90;;;;;;4399052;32;20089;-60
2023/09/22 04:31:34;;;;;;;0.20;0.20;;;17.80;99.90;;;;;;4401772;32;20094;-60
2023/09/22 04:34:01;;;;;;;0.30;0.30;;;17.90;99.90;;;;;;4414717;32;20065;-59
2023/09/22 04:36:26;;;;;;;0.20;0.20;;;17.90;99.90;;;;;;4399174;32;20101;-60
2023/09/22 04:38:52;;;;;;;0.30;0.30;;;17.90;99.90;;;;;;4401955;32;20132;-60
2023/09/22 04:41:21;;;;;;;0.22;0.22;;;18.00;99.90;;;;;;4399579;32;20085;-60
2023/09/22 04:43:46;;;;;;;0.40;0.40;;;18.00;99.90;;;;;;4399082;32;20127;-59
2023/09/22 04:46:12;;;;;;;0.30;0.30;;;18.00;99.90;;;;;;4413800;32;20582;-60
2023/09/22 04:48:38;;;;;;;0.30;0.30;;;18.00;99.90;;;;;;4400324;32;20524;-60
2023/09/22 04:51:05;;;;;;;0.20;0.20;;;18.00;99.90;;;;;;4399730;32;20393;-59
2023/09/22 04:53:31;;;;;;;0.30;0.30;;;18.00;99.90;;;;;;4413980;32;20367;-60
2023/09/22 04:56:03;;;;;;;0.35;0.35;;;18.00;99.90;;;;;;4415548;32;20427;-60
2023/09/22 04:58:30;;;;;;;0.25;0.25;;;17.90;99.90;;;;;;4414823;32;20081;-59
2023/09/22 05:00:57;;;;;;;0.28;0.28;;;17.80;99.90;;;;;;4411628;32;20106;-58
2023/09/22 05:03:24;;;;;;;0.20;0.20;;;17.80;99.90;;;;;;4397588;32;20121;-59
2023/09/22 05:05:49;;;;;;;0.20;0.20;;;17.80;99.90;;;;;;4412698;32;20260;-60
2023/09/22 05:08:16;;;;;;;0.37;0.37;;;17.80;99.90;;;;;;4411750;32;20246;-59
2023/09/22 05:10:46;;;;;;;0.65;0.40;;;17.80;99.90;;;;;;4414652;32;20140;-60
2023/09/22 05:13:14;;;;;;;0.32;0.30;;;17.90;99.90;;;;;;4412177;32;20097;-60
2023/09/22 05:15:41;;;;;;;0.30;0.30;;;17.90;99.90;;;;;;4417529;32;20065;-60
2023/09/22 05:18:12;;;;;;;0.25;0.25;;;17.80;99.90;;;;;;4400741;32;20179;-60
2023/09/22 05:20:39;;;;;;;0.20;0.20;;;17.90;99.90;;;;;;4409597;32;20081;-60
2023/09/22 05:23:04;;;;;;;15.00;0.52;;;17.90;99.90;;;;;;4414184;32;20519;-60
2023/09/22 05:25:32;;;;;;;1.33;0.43;;;17.80;99.90;;;;;;4412443;32;20129;-62
2023/09/22 05:27:58;;;;;;;0.20;0.20;;;17.90;99.90;;;;;;4387227;32;20080;-59
2023/09/22 05:30:23;;;;;;;0.40;0.40;;;17.80;99.90;;;;;;4399248;32;20069;-62
2023/09/22 05:32:49;;;;;;;0.20;0.20;;;17.80;99.90;;;;;;4393880;32;20554;-62
2023/09/22 05:35:15;;;;;;;0.10;0.10;;;17.80;99.90;;;;;;4409675;32;21595;-60
2023/09/22 05:37:43;;;;;;;0.13;0.13;;;17.90;99.90;;;;;;4409157;32;20077;-62
2023/09/22 05:40:12;;;;;;;0.45;0.45;;;17.90;99.90;;;;;;4405694;32;20073;-62
2023/09/22 05:42:39;;;;;;;0.30;0.30;;;17.80;99.90;;;;;;4403530;32;20097;-63
2023/09/22 05:45:09;;;;;;;0.20;0.20;;;17.70;99.90;;;;;;4405493;32;20132;-62
2023/09/22 05:47:36;;;;;;;0.40;0.40;;;17.80;99.90;;;;;;4401855;32;20151;-62
2023/09/22 05:50:02;;;;;;;0.22;0.22;;;17.80;99.90;;;;;;4405322;32;20517;-62
2023/09/22 05:52:29;;;;;;;0.20;0.20;;;17.90;99.90;;;;;;4397343;32;20091;-62
2023/09/22 05:54:56;;;;;;;0.20;0.20;;;17.90;99.90;;;;;;4404457;32;20098;-62
2023/09/22 05:57:22;;;;;;;0.30;0.30;;;17.90;99.90;;;;;;4389525;32;20129;-63
2023/09/22 05:59:48;;;;;;;0.30;0.30;;;17.90;99.90;;;;;;4386236;32;20143;-62
2023/09/22 06:02:14;;;;;;;0.37;0.37;;;17.90;99.90;;;;;;4391944;32;20832;-62
2023/09/22 06:04:40;;;;;;;0.30;0.30;;;17.90;99.90;;;;;;4382368;32;20174;-63
2023/09/22 06:07:12;;;;;;;0.30;0.30;;;17.90;99.90;;;;;;4392222;32;20086;-61
2023/09/22 06:09:38;;;;;;;0.73;0.32;;;17.90;99.90;;;;;;4398040;32;20085;-63
2023/09/22 06:12:07;;;;;;;0.20;0.20;;;17.80;99.90;;;;;;4393711;32;20150;-63
2023/09/22 06:14:32;;;;;;;0.30;0.30;;;17.80;99.90;;;;;;4373677;32;20319;-61
2023/09/22 06:16:58;;;;;;;0.30;0.30;;;17.70;99.90;;;;;;4380333;32;20100;-63
2023/09/22 06:19:23;;;;;;;0.20;0.20;;;17.80;99.90;;;;;;4396571;32;20616;-61
2023/09/22 06:21:49;;;;;;;0.57;0.35;;;17.90;99.90;;;;;;4399547;32;20159;-61
2023/09/22 06:24:15;;;;;;;0.28;0.28;;;17.80;99.90;;;;;;4397060;32;20240;-62
2023/09/22 06:26:41;;;;;;;0.62;0.40;;;17.70;99.90;;;;;;4395754;32;20077;-61
2023/09/22 06:29:07;;;;;;;0.60;0.60;;;17.70;99.90;;;;;;4402909;32;20686;-63
2023/09/22 06:31:33;;;;;;;0.32;0.32;;;17.70;99.90;;;;;;4378379;32;20850;-63
2023/09/22 06:33:59;;;;;;;0.20;0.20;;;17.80;99.90;;;;;;4392315;32;20799;-62
2023/09/22 06:36:25;;;;;;;0.60;0.60;;;17.80;99.90;;;;;;4390432;32;20093;-63
2023/09/22 06:38:50;;;;;;;0.30;0.30;;;17.80;99.90;;;;;;4386402;32;21017;-62
2023/09/22 06:41:18;;;;;;;0.20;0.20;;;17.80;99.90;;;;;;4403943;32;20100;-61
2023/09/22 06:43:44;;;;;;;0.30;0.30;;;17.80;99.90;;;;;;4394666;32;20134;-62
2023/09/22 06:46:10;;;;;;;0.20;0.20;;;17.70;99.90;;;;;;4402627;32;20093;-62
2023/09/22 06:48:36;;;;;;;0.40;0.40;;;17.70;99.90;;;;;;4402707;32;20600;-62
2023/09/22 06:51:01;;;;;;;0.30;0.30;;;17.80;99.90;;;;;;4405740;32;20077;-62
2023/09/22 06:53:28;;;;;;;0.45;0.25;;;17.90;99.90;;;;;;4399991;32;20097;-62
2023/09/22 06:56:09;;;;;;;0.20;0.20;;;17.90;99.90;;;;;;4404753;32;20094;-62
2023/09/22 06:58:36;;;;;;;;;;;17.80;99.90;;;;;;4399367;32;20192;-63
2023/09/22 07:01:16;;;;;;;0.30;0.30;;;17.80;99.90;;;;;;4390497;32;20607;-62
2023/09/22 07:03:43;;;;;;;;;;;17.90;99.90;;;;;;4407454;32;20081;-62
2023/09/22 07:06:10;;;;;;;0.85;0.85;;;17.90;99.90;;;;;;4397695;32;20057;-63
2023/09/22 07:08:37;;;;;;;0.28;0.28;;;17.90;99.90;;;;;;4386370;32;20105;-61
2023/09/22 07:11:04;;;;;;;0.30;0.30;;;17.90;99.90;;;;;;4359287;32;20178;-63
2023/09/22 07:13:29;;;;;;;0.35;0.35;;;17.90;99.90;;;;;;4395140;32;21692;-63
2023/09/22 07:15:57;;;;;;;1.50;0.73;;;17.90;99.90;;;;;;4392474;32;20073;-62
2023/09/22 07:18:23;;;;;;;0.45;0.45;;;17.90;99.90;;;;;;4377816;32;20114;-63
2023/09/22 07:20:49;;;;;;;0.30;0.30;;;17.90;99.90;;;;;;4388093;32;21263;-63
2023/09/22 07:23:14;;;;;;;0.30;0.30;;;17.90;99.90;;;;;;4388623;32;20114;-62
2023/09/22 07:25:40;;;;;;;0.30;0.30;;;18.00;99.90;;;;;;4385124;32;20151;-63
2023/09/22 07:28:07;;;;;;;0.20;0.20;;;18.00;99.90;;;;;;4392260;32;21137;-63
2023/09/22 07:30:34;;;;;;;0.32;0.32;;;17.90;99.90;;;;;;4382754;32;20601;-63
2023/09/22 07:33:00;;;;;;;0.30;0.30;;;17.90;99.90;;;;;;4377379;32;20211;-63
2023/09/22 07:35:26;;;;;;;0.22;0.22;;;17.90;99.90;;;;;;4382537;32;20136;-63
2023/09/22 07:37:51;;;;;;;0.30;0.30;;;17.90;99.90;;;;;;4376718;32;20686;-62
2023/09/22 07:40:17;;;;;;;0.30;0.30;;;17.90;99.90;;;;;;4393419;32;20062;-62
2023/09/22 07:42:44;;;;;;;0.30;0.30;;;17.90;99.90;;;;;;4370997;32;20121;-63
2023/09/22 07:45:10;;;;;;;0.32;0.32;;;17.90;99.90;;;;;;4391100;32;20105;-63
2023/09/22 07:47:37;;;;;;;0.30;0.30;;;17.90;99.90;;;;;;4375161;32;20097;-63
2023/09/22 07:50:04;;;;;;;0.32;0.32;;;17.90;99.90;;;;;;4359995;32;20821;-62
2023/09/22 07:52:29;;;;;;;0.20;0.20;;;17.90;99.90;;;;;;4371201;32;20194;-63
2023/09/22 07:54:56;;;;;;;0.75;0.75;;;17.80;99.90;;;;;;4376604;32;20073;-63
2023/09/22 07:57:22;;;;;;;0.20;0.20;;;17.80;99.90;;;;;;4367432;32;20078;-62
2023/09/22 07:59:47;;;;;;;0.20;0.20;;;17.80;99.90;;;;;;4373405;32;20097;-62
2023/09/22 08:02:14;;;;;;;0.30;0.30;;;17.90;99.90;;;;;;4389210;32;20129;-62
2023/09/22 08:04:40;;;;;;;6.22;0.35;;;17.90;99.90;;;;;;4390761;32;20427;-63
2023/09/22 08:07:06;;;;;;;0.85;0.65;;;17.80;99.90;;;;;;4393541;32;20587;-62
2023/09/22 08:09:32;;;;;;;0.20;0.20;;;17.90;99.90;;;;;;4380970;32;21822;-62
2023/09/22 08:11:57;;;;;;;16.65;0.43;;;17.90;99.90;;;;;;4370020;32;20073;-63
2023/09/22 08:14:25;;;;;;;0.25;0.25;;;18.00;99.90;;;;;;4384436;32;21084;-62
2023/09/22 08:16:51;;;;;;;1.00;0.30;;;;;;;;;;4375165;32;20112;-62
2023/09/22 08:19:17;;;;;;;0.73;0.60;;;;;;;;;;4386555;32;20569;-63
2023/09/22 08:21:45;;;;;;;0.20;0.20;;;;;;;;;;4379533;32;20109;-62
2023/09/22 08:24:11;;;;;;;0.40;0.40;;;;;;;;;;4380925;32;20081;-61
2023/09/22 08:26:37;;;;;;;0.30;0.30;;;;;;;;;;4369720;32;20106;-63
2023/09/22 08:29:04;;;;;;;0.20;0.20;;;;;;;;;;4356898;32;20096;-63
2023/09/22 08:31:30;;;;;;;0.28;0.28;;;;;;;;;;4367543;32;20102;-63
2023/09/22 08:33:56;;;;;;;0.22;0.22;;;;;;;;;;4360674;32;21248;-63
2023/09/22 08:36:22;;;;;;;0.20;0.20;;;;;;;;;;4372440;32;20620;-62
2023/09/22 08:38:49;;;;;;;0.20;0.20;;;;;;;;;;4384374;32;20438;-62
2023/09/22 08:41:14;;;;;;;0.20;0.20;;;;;;;;;;4376094;32;20085;-63
2023/09/22 08:43:41;;;;;;;0.30;0.30;;;;;;;;;;4376148;32;20612;-62
2023/09/22 08:46:07;;;;;;;0.20;0.20;;;;;;;;;;4405627;32;20139;-62
2023/09/22 08:48:34;;;;;;;0.20;0.20;;;;;;;;;;4387958;32;20749;-62
2023/09/22 08:51:00;;;;;;;0.30;0.30;;;;;;;;;;4374303;32;20141;-62
2023/09/22 08:53:29;;;;;;;0.20;0.20;;;;;;;;;;4395977;32;20101;-59
2023/09/22 08:55:55;;;;;;;0.20;0.20;;;;;;;;;;4403484;32;20070;-60
2023/09/22 08:58:21;;;;;;;0.25;0.25;;;;;;;;;;4392693;32;20137;-62
2023/09/22 09:00:48;;;;;;;0.30;0.30;;;;;;;;;;4392305;32;20113;-62
2023/09/22 09:03:14;;;;;;;0.40;0.40;;;;;;;;;;4383705;32;20195;-63
2023/09/22 09:05:40;;;;;;;0.30;0.30;;;;;;;;;;4393688;32;20529;-62
2023/09/22 09:08:10;;;;;;;0.70;0.70;;;;;;;;;;4392759;32;20176;-62
2023/09/22 09:10:36;;;;;;;0.27;0.27;;;;;;;;;;4391839;32;20419;-60
2023/09/22 09:13:03;;;;;;;0.25;0.25;;;;;;;;;;4386926;32;20247;-62
2023/09/22 09:15:31;;;;;;;0.45;0.30;;;;;;;;;;4390949;32;21208;-61
2023/09/22 09:18:13;;;;;;;0.20;0.20;;;;;;;;;;4380437;32;20161;-59
2023/09/22 09:20:41;;;;;;;0.20;0.20;;;;;;;;;;4368053;32;20797;-61
2023/09/22 09:23:12;;;;;;;0.20;0.20;;;;;;;;;;4365522;32;20359;-61
2023/09/22 09:25:42;;;;;;;0.30;0.30;;;;;;;;;;4377548;32;20650;-61
2023/09/22 09:28:08;;;;;;;0.30;0.30;;;;;;;;;;4374568;32;20073;-62
2023/09/22 09:30:34;;;;;;;0.20;0.20;;;;;;;;;;4356164;32;20085;-62
2023/09/22 09:33:09;;;;;;;0.30;0.30;;;19.80;99.90;;;;;;4383003;32;20204;-62
2023/09/22 09:35:37;;;;;;;0.57;0.57;;;18.10;99.90;;;;;;4389175;32;20117;-62
2023/09/22 09:38:03;;;;;;;0.30;0.30;;;18.10;99.90;;;;;;4376351;32;20138;-60
2023/09/22 09:40:29;;;;;;;0.30;0.30;;;18.10;99.90;;;;;;4395793;32;20090;-63
2023/09/22 09:42:58;;;;;;;0.20;0.20;;;18.20;99.90;;;;;;4391329;32;20156;-62
2023/09/22 09:45:24;;;;;;;0.20;0.20;;;18.20;99.90;;;;;;4386943;32;20121;-60
2023/09/22 09:47:54;;;;;;;0.22;0.22;;;18.20;99.90;;;;;;4369505;32;20853;-63
2023/09/22 09:50:20;;;;;;;0.30;0.30;;;18.20;99.90;;;;;;4379564;32;20720;-62
2023/09/22 09:52:53;;;;;;;0.20;0.20;;;18.20;99.90;;;;;;4364025;32;20219;-62
2023/09/22 09:55:20;;;;;;;0.30;0.30;;;18.20;99.90;;;;;;4366802;32;20765;-62
2023/09/22 09:57:46;;;;;;;0.25;0.25;;;18.20;99.90;;;;;;4392052;32;20117;-62
2023/09/22 10:00:22;;;;;;;0.30;0.30;;;18.20;99.90;;;;;;4384889;32;20081;-63
2023/09/22 10:02:49;;;;;;;0.30;0.30;;;18.20;99.90;;;;;;4361810;32;20118;-62
2023/09/22 10:05:17;;;;;;;0.30;0.30;;;18.20;99.90;;;;;;4355601;32;20147;-63
2023/09/22 10:07:44;;;;;;;0.85;0.40;;;18.20;99.90;;;;;;4363302;32;20077;-63
2023/09/22 10:10:11;;;;;;;0.20;0.20;;;18.20;99.90;;;;;;4383663;32;20077;-63
2023/09/22 10:12:37;;;;;;;0.20;0.20;;;18.10;99.90;;;;;;4384991;32;20432;-63
2023/09/22 10:15:04;;;;;;;0.20;0.20;;;18.10;99.90;;;;;;4380537;32;20078;-60
2023/09/22 10:17:31;;;;;;;0.82;0.35;;;18.20;99.90;;;;;;4379614;32;20450;-63
2023/09/22 10:20:02;;;;;;;0.20;0.20;;;18.20;99.90;;;;;;4383359;32;20101;-61
2023/09/22 10:22:31;;;;;;;0.20;0.20;;;18.20;99.90;;;;;;4374123;32;20098;-63
2023/09/22 10:25:18;;;;;;;0.20;0.20;;;18.30;99.90;;;;;;4395575;32;20672;-65
2023/09/22 10:28:01;;;;;;;0.30;0.30;;;18.30;99.90;;;;;;4393982;32;20110;-62
2023/09/22 10:30:49;;;;;;;0.28;0.28;;;18.20;99.90;;;;;;4403420;32;20142;-63
2023/09/22 10:33:25;;;;;;;0.60;0.60;;;18.20;99.90;;;;;;4389840;32;20150;-63
2023/09/22 10:35:51;;;;;;;1.00;0.32;;;18.30;99.90;;;;;;4404177;32;20584;-62
2023/09/22 10:38:19;;;;;;;0.30;0.30;;;18.30;99.90;;;;;;4405017;32;20094;-62
2023/09/22 10:41:03;;;;;;;0.30;0.30;;;18.30;99.90;;;;;;4386930;32;20125;-63
2023/09/22 10:43:30;;;;;;;0.20;0.20;;;18.30;99.90;;;;;;4398596;32;20525;-63
2023/09/22 10:45:56;;;;;;;0.20;0.20;;;18.30;99.90;;;;;;4399753;32;20090;-63
2023/09/22 10:48:22;;;;;;;7.65;1.40;;;18.20;99.90;;;;;;4397904;32;20440;-63
2023/09/22 10:50:49;;;;;;;0.20;0.20;;;18.30;99.90;;;;;;4383264;32;20084;-63
2023/09/22 10:53:15;;;;;;;0.30;0.30;;;18.30;99.90;;;;;;4389572;32;20208;-62
2023/09/22 10:55:44;;;;;;;1.27;0.47;;;18.30;99.90;;;;;;4391504;32;20152;-63
2023/09/22 10:58:12;;;;;;;0.30;0.30;;;18.30;99.90;;;;;;4387654;32;20105;-65
2023/09/22 11:00:40;;;;;;;0.30;0.30;;;18.30;99.90;;;;;;4385623;32;20102;-61
2023/09/22 11:03:09;;;;;;;0.37;0.37;;;18.30;99.90;;;;;;4360221;32;20216;-62
2023/09/22 11:05:36;;;;;;;0.20;0.20;;;18.30;99.90;;;;;;4376469;32;20105;-62
2023/09/22 11:08:09;;;;;;;0.30;0.30;;;18.20;99.90;;;;;;4374433;32;20121;-63
2023/09/22 11:10:34;;;;;;;0.30;0.30;;;18.20;99.90;;;;;;4387246;32;20148;-63
2023/09/22 11:13:00;;;;;;;0.20;0.20;;;18.20;99.90;;;;;;4392991;32;20078;-63
2023/09/22 11:15:25;;;;;;;0.30;0.30;;;18.20;99.90;;;;;;4392758;32;20086;-59
2023/09/22 11:17:51;;;;;;;0.25;0.25;;;18.10;99.90;;;;;;4401343;32;20089;-63
2023/09/22 11:20:18;;;;;;;0.30;0.30;;;18.10;99.90;;;;;;4386139;32;20843;-61
2023/09/22 11:22:46;;;;;;;2.00;1.00;;;18.20;99.90;;;;;;4364817;32;20105;-63
2023/09/22 11:25:12;;;;;;;0.20;0.20;;;18.20;99.90;;;;;;4393371;32;20215;-63
2023/09/22 11:27:53;;;;;;;0.50;0.50;;;18.20;99.90;;;;;;4396184;32;20200;-61
2023/09/22 11:30:26;;;;;;;0.37;0.37;;;18.20;99.90;;;;;;4392172;32;20104;-63
2023/09/22 11:32:53;;;;;;;1.95;1.00;;;18.20;99.90;;;;;;4383207;32;20592;-63
2023/09/22 11:35:43;;;;;;;0.40;0.40;;;18.30;99.90;;;;;;4373497;32;20708;-60
2023/09/22 11:38:31;;;;;;;0.50;0.50;;;18.40;99.90;;;;;;4374228;32;20705;-62
2023/09/22 11:41:04;;;;;;;0.22;0.22;;;18.40;99.90;;;;;;4371583;32;20101;-61
2023/09/22 11:43:31;;;;;;;0.30;0.30;;;18.40;99.90;;;;;;4396460;32;21222;-61
2023/09/22 11:46:23;;;;;;;0.20;0.20;;;18.50;99.90;;;;;;4393360;32;20074;-62
2023/09/22 11:49:58;;;;;;;0.35;0.35;;;18.40;99.90;;;;;;4438985;32;137957;-63
2023/09/22 11:52:30;;;;;;;0.30;0.30;;;18.30;99.90;;;;;;4449059;32;20144;-64
2023/09/22 11:54:57;;;;;;;0.73;0.32;;;18.30;99.90;;;;;;4444639;32;20088;-64
2023/09/22 11:57:22;;;;;;;0.30;0.30;;;18.30;99.90;;;;;;4443478;32;20445;-63
2023/09/22 11:59:57;;;;;;;0.85;0.50;;;18.30;99.90;;;;;;4440881;32;20073;-62
2023/09/22 12:02:22;;;;;;;0.30;0.30;;;18.40;99.90;;;;;;4430664;32;20097;-63
2023/09/22 12:04:48;;;;;;;0.30;0.30;;;18.50;99.90;;;;;;4435617;32;20176;-63
2023/09/22 12:07:14;;;;;;;0.30;0.30;;;18.60;99.90;;;;;;4438316;32;20072;-64
2023/09/22 12:09:40;;;;;;;0.52;0.30;;;18.70;99.90;;;;;;4437775;32;20115;-63
2023/09/22 12:12:06;;;;;;;0.40;0.40;;;18.80;99.90;;;;;;4436520;32;20495;-63
2023/09/22 12:14:32;;;;;;;0.32;0.32;;;18.70;99.90;;;;;;4440561;32;20073;-63
2023/09/22 12:16:57;;;;;;;0.22;0.22;;;18.60;99.90;;;;;;4433333;32;20104;-63
2023/09/22 12:19:25;;;;;;;2.33;0.95;;;18.60;99.90;;;;;;4433229;32;20703;-63
2023/09/22 12:21:50;;;;;;;0.30;0.30;;;18.60;99.90;;;;;;4436364;32;20692;-63
2023/09/22 12:24:16;;;;;;;0.20;0.20;;;18.70;99.90;;;;;;4437557;32;20088;-63
2023/09/22 12:26:42;;;;;;;1.02;0.45;;;18.70;99.90;;;;;;4436080;32;20123;-65
2023/09/22 12:29:08;;;;;;;0.40;0.40;;;18.60;99.90;;;;;;4437382;32;20087;-61
2023/09/22 12:31:36;;;;;;;0.73;0.45;;;18.60;99.90;;;;;;4424993;32;20093;-62
2023/09/22 12:34:01;;;;;;;1.15;0.77;;;18.70;99.90;;;;;;4420477;32;20551;-60
2023/09/22 12:36:27;;;;;;;0.30;0.30;;;18.60;99.90;;;;;;4432643;32;20113;-61
2023/09/22 12:38:53;;;;;;;0.30;0.30;;;18.60;99.90;;;;;;4427083;32;20539;-60
2023/09/22 12:41:19;;;;;;;0.40;0.40;;;18.60;99.90;;;;;;4432306;32;20222;-62
2023/09/22 12:43:44;;;;;;;0.20;0.20;;;18.50;99.90;;;;;;4440986;32;20089;-62
2023/09/22 12:46:12;;;;;;;0.75;0.47;;;18.50;99.90;;;;;;4437710;32;20068;-61
2023/09/22 12:48:39;;;;;;;0.30;0.30;;;18.50;99.90;;;;;;4429731;32;20521;-61
2023/09/22 12:51:05;;;;;;;0.40;0.40;;;18.40;99.90;;;;;;4431202;32;20089;-62
2023/09/22 12:53:31;;;;;;;0.30;0.30;;;18.30;99.90;;;;;;4443886;32;20486;-62
2023/09/22 12:55:57;;;;;;;0.20;0.20;;;18.30;99.90;;;;;;4445711;32;20072;-60
2023/09/22 12:58:24;;;;;;;0.37;0.37;;;18.30;99.90;;;;;;4445266;32;20517;-60